Site contains unofficial IBTrACS data. Visit the IBTrACS Website to access archived data.

1918 NOT_NAMED (1918099N06143)


IBTrACS version v04r00. Visit IBTrACS website for data access.
Please direct all questions to the IBTrACS Q and A forum

Storm track - Intensity - Wind Radii - Intensity Data - Source Data - All data

Summary Information

Storm ID 1918099N06143
Start Apr 8 22Z
End Apr 17 22Z
ATCF IDs
Track status Best track data.

Storm track plot

Map of storm track

Intensity plots

No Intensity information for this storm


Radial wind information

No radial wind information for this storm


Position and Intensity Table

BASIN ISO_TIME_________ NATURE LAT LON
degrees north degrees east
WP 1918-04-08 22:00:00 NR 6.30 142.50
WP 1918-04-09 00:00:00 NR 6.39 142.19
WP 03:00:00 NR 6.52 141.74
WP 06:00:00 NR 6.64 141.31
WP 09:00:00 NR 6.76 140.92
WP 10:00:00 NR 6.80 140.80
WP 12:00:00 NR 6.87 140.58
WP 15:00:00 NR 6.97 140.28
WP 18:00:00 NR 7.07 139.97
WP 21:00:00 NR 7.17 139.63
WP 22:00:00 NR 7.20 139.50
WP 1918-04-10 00:00:00 NR 7.26 139.20
WP 03:00:00 NR 7.34 138.70
WP 06:00:00 NR 7.44 138.15
WP 09:00:00 NR 7.55 137.59
WP 10:00:00 NR 7.60 137.40
WP 12:00:00 NR 7.71 137.04
WP 15:00:00 NR 7.91 136.49
WP 18:00:00 NR 8.12 135.94
WP 21:00:00 NR 8.33 135.38
WP 22:00:00 NR 8.40 135.20
WP 1918-04-11 00:00:00 NR 8.52 134.83
WP 03:00:00 NR 8.69 134.28
WP 06:00:00 NR 8.86 133.73
WP 09:00:00 NR 9.04 133.18
WP 10:00:00 NR 9.10 133.00
WP 12:00:00 NR 9.23 132.63
WP 15:00:00 NR 9.44 132.07
WP 18:00:00 NR 9.64 131.54
WP 21:00:00 NR 9.84 131.05
WP 22:00:00 NR 9.90 130.90
WP 1918-04-12 00:00:00 NR 10.01 130.63
WP 03:00:00 NR 10.15 130.26
WP 06:00:00 NR 10.29 129.93
WP 09:00:00 NR 10.45 129.61
WP 10:00:00 NR 10.50 129.50
WP 12:00:00 NR 10.61 129.27
WP 15:00:00 NR 10.80 128.92
WP 18:00:00 NR 11.00 128.57
WP 21:00:00 NR 11.22 128.22
WP 22:00:00 NR 11.30 128.10
WP 1918-04-13 00:00:00 NR 11.45 127.83
WP 03:00:00 NR 11.70 127.42
WP 06:00:00 NR 11.97 127.03
WP 09:00:00 NR 12.28 126.69
WP 10:00:00 NR 12.40 126.60
WP 12:00:00 NR 12.66 126.42
WP 15:00:00 NR 13.08 126.22
WP 18:00:00 NR 13.52 126.10
WP 21:00:00 NR 13.96 126.08
WP 22:00:00 NR 14.10 126.10
WP 1918-04-14 00:00:00 NR 14.36 126.16
WP 03:00:00 NR 14.72 126.33
WP 06:00:00 NR 15.07 126.58
WP 09:00:00 NR 15.39 126.89
WP 10:00:00 NR 15.50 127.00
WP 12:00:00 NR 15.71 127.20
WP 15:00:00 NR 16.01 127.54
WP 18:00:00 NR 16.30 127.90
WP 21:00:00 NR 16.60 128.27
WP 22:00:00 NR 16.70 128.40
WP 1918-04-15 00:00:00 NR 16.92 128.64
WP 03:00:00 NR 17.25 129.02
WP 06:00:00 NR 17.58 129.39
WP 09:00:00 NR 17.90 129.77
WP 10:00:00 NR 18.00 129.90
WP 12:00:00 NR 18.18 130.13
WP 15:00:00 NR 18.45 130.48
WP 18:00:00 NR 18.71 130.85
WP 21:00:00 NR 19.00 131.25
WP 22:00:00 NR 19.10 131.40
WP 1918-04-16 00:00:00 NR 19.33 131.72
WP 03:00:00 NR 19.70 132.25
WP 06:00:00 NR 20.09 132.81
WP 09:00:00 NR 20.47 133.40
WP 10:00:00 NR 20.60 133.60
WP 12:00:00 NR 20.78 133.92
WP 15:00:00 NR 21.05 134.40
WP 18:00:00 NR 21.37 134.96
WP 21:00:00 NR 21.81 135.70
WP 22:00:00 NR 22.00 136.00
WP 1918-04-17 00:00:00 NR 22.47 136.75
WP 03:00:00 NR 23.29 138.06
WP 06:00:00 NR 24.20 139.50
WP 09:00:00 NR 25.11 140.94
WP 10:00:00 NR 25.40 141.40
WP 12:00:00 NR 25.96 142.26
WP 15:00:00 NR 26.74 143.44
WP 18:00:00 NR 27.47 144.53
WP 21:00:00 NR 28.17 145.56
WP 22:00:00 NR 28.40 145.90

Source Information

Agency Information
USA
TOKYO
CMA
HKO
NEWDELHI
REUNION
BOM
NADI
WELLINGTON
DS824
TD9636 cons_worldwide_trop_cyclone_18710101-19891231-003:Line=5658
TD9635
NEUMANN
MLC

All available IBTrACS Data

SEASON BASIN SUBBASIN ISO_TIME_________ NATURE LAT LON DIST2LAND LANDFALL IFLAG USA SSHS TD9636 LAT TD9636 LON TD9636 STAGE STORM SPEED STORM DIR
Year degrees north degrees east km km 1 degrees north degrees east kts degrees
1918 WP MM 1918-04-08 22:00:00 NR 6.30 142.50 1001 991 __________O___ -1 6.30 142.50 4 10 286
1918 WP MM 1918-04-09 00:00:00 NR 6.39 142.19 997 987 __________P___ -1 6.39 142.19 4 9 286
1918 WP MM 03:00:00 NR 6.52 141.74 987 981 __________P___ -1 6.52 141.74 4 9 286
1918 WP MM 06:00:00 NR 6.64 141.31 981 980 __________P___ -1 6.64 141.31 4 9 287
1918 WP MM 09:00:00 NR 6.76 140.92 987 984 __________P___ -1 6.76 140.92 4 8 287
1918 WP MM 10:00:00 NR 6.80 140.80 984 981 __________O___ -1 6.80 140.80 4 7 288
1918 WP MM 12:00:00 NR 6.87 140.58 989 983 __________P___ -1 6.87 140.58 4 7 289
1918 WP MM 15:00:00 NR 6.97 140.28 991 986 __________P___ -1 6.97 140.28 4 6 288
1918 WP MM 18:00:00 NR 7.07 139.97 995 980 __________P___ -1 7.07 139.97 4 7 287
1918 WP MM 21:00:00 NR 7.17 139.63 986 981 __________P___ -1 7.17 139.63 4 7 285
1918 WP MM 22:00:00 NR 7.20 139.50 981 972 __________O___ -1 7.20 139.50 4 9 282
1918 WP MM 1918-04-10 00:00:00 NR 7.26 139.20 978 959 __________P___ -1 7.26 139.20 4 10 280
1918 WP MM 03:00:00 NR 7.34 138.70 959 952 __________P___ -1 7.34 138.70 4 11 280
1918 WP MM 06:00:00 NR 7.44 138.15 952 945 __________P___ -1 7.44 138.15 4 11 281
1918 WP MM 09:00:00 NR 7.55 137.59 956 951 __________P___ -1 7.55 137.59 4 11 282
1918 WP MM 10:00:00 NR 7.60 137.40 951 946 __________O___ -1 7.60 137.40 4 11 286
1918 WP MM 12:00:00 NR 7.71 137.04 954 952 __________P___ -1 7.71 137.04 4 11 289
1918 WP MM 15:00:00 NR 7.91 136.49 968 967 __________P___ -1 7.91 136.49 4 12 290
1918 WP MM 18:00:00 NR 8.12 135.94 986 972 __________P___ -1 8.12 135.94 4 12 291
1918 WP MM 21:00:00 NR 8.33 135.38 972 950 __________P___ -1 8.33 135.38 4 12 291
1918 WP MM 22:00:00 NR 8.40 135.20 950 907 __________O___ -1 8.40 135.20 4 12 289
1918 WP MM 1918-04-11 00:00:00 NR 8.52 134.83 907 855 __________P___ -1 8.52 134.83 4 12 288
1918 WP MM 03:00:00 NR 8.69 134.28 855 793 __________P___ -1 8.69 134.28 4 11 287
1918 WP MM 06:00:00 NR 8.86 133.73 793 741 __________P___ -1 8.86 133.73 4 11 288
1918 WP MM 09:00:00 NR 9.04 133.18 741 721 __________P___ -1 9.04 133.18 4 11 288
1918 WP MM 10:00:00 NR 9.10 133.00 721 681 __________O___ -1 9.10 133.00 4 12 289
1918 WP MM 12:00:00 NR 9.23 132.63 681 634 __________P___ -1 9.23 132.63 4 12 290
1918 WP MM 15:00:00 NR 9.44 132.07 634 578 __________P___ -1 9.44 132.07 4 12 291
1918 WP MM 18:00:00 NR 9.64 131.54 578 538 __________P___ -1 9.64 131.54 4 11 292
1918 WP MM 21:00:00 NR 9.84 131.05 538 519 __________P___ -1 9.84 131.05 4 10 292
1918 WP MM 22:00:00 NR 9.90 130.90 519 490 __________O___ -1 9.90 130.90 4 9 292
1918 WP MM 1918-04-12 00:00:00 NR 10.01 130.63 490 460 __________P___ -1 10.01 130.63 4 8 292
1918 WP MM 03:00:00 NR 10.15 130.26 463 424 __________P___ -1 10.15 130.26 4 7 293
1918 WP MM 06:00:00 NR 10.29 129.93 424 396 __________P___ -1 10.29 129.93 4 7 295
1918 WP MM 09:00:00 NR 10.45 129.61 396 390 __________P___ -1 10.45 129.61 4 7 296
1918 WP MM 10:00:00 NR 10.50 129.50 390 374 __________O___ -1 10.50 129.50 4 7 297
1918 WP MM 12:00:00 NR 10.61 129.27 374 339 __________P___ -1 10.61 129.27 4 8 298
1918 WP MM 15:00:00 NR 10.80 128.92 339 305 __________P___ -1 10.80 128.92 4 8 299
1918 WP MM 18:00:00 NR 11.00 128.57 305 263 __________P___ -1 11.00 128.57 4 8 302
1918 WP MM 21:00:00 NR 11.22 128.22 263 253 __________P___ -1 11.22 128.22 4 8 303
1918 WP MM 22:00:00 NR 11.30 128.10 253 225 __________O___ -1 11.30 128.10 4 9 301
1918 WP MM 1918-04-13 00:00:00 NR 11.45 127.83 225 191 __________P___ -1 11.45 127.83 4 9 301
1918 WP MM 03:00:00 NR 11.70 127.42 191 164 __________P___ -1 11.70 127.42 4 9 303
1918 WP MM 06:00:00 NR 11.97 127.03 164 130 __________P___ -1 11.97 127.03 4 9 310
1918 WP MM 09:00:00 NR 12.28 126.69 130 120 __________P___ -1 12.28 126.69 4 9 316
1918 WP MM 10:00:00 NR 12.40 126.60 121 107 __________O___ -1 12.40 126.60 4 9 325
1918 WP MM 12:00:00 NR 12.66 126.42 112 109 __________P___ -1 12.66 126.42 4 9 331
1918 WP MM 15:00:00 NR 13.08 126.22 125 125 __________P___ -1 13.08 126.22 4 9 340
1918 WP MM 18:00:00 NR 13.52 126.10 148 148 __________P___ -1 13.52 126.10 4 9 351
1918 WP MM 21:00:00 NR 13.96 126.08 183 183 __________P___ -1 13.96 126.08 4 9 359
1918 WP MM 22:00:00 NR 14.10 126.10 184 184 __________O___ -1 14.10 126.10 4 8 11
1918 WP MM 1918-04-14 00:00:00 NR 14.36 126.16 202 202 __________P___ -1 14.36 126.16 4 8 20
1918 WP MM 03:00:00 NR 14.72 126.33 223 223 __________P___ -1 14.72 126.33 4 8 30
1918 WP MM 06:00:00 NR 15.07 126.58 272 272 __________P___ -1 15.07 126.58 4 9 39
1918 WP MM 09:00:00 NR 15.39 126.89 317 317 __________P___ -1 15.39 126.89 4 9 43
1918 WP MM 10:00:00 NR 15.50 127.00 332 332 __________O___ -1 15.50 127.00 4 9 44
1918 WP MM 12:00:00 NR 15.71 127.20 362 362 __________P___ -1 15.71 127.20 4 9 45
1918 WP MM 15:00:00 NR 16.01 127.54 407 416 __________P___ -1 16.01 127.54 4 9 48
1918 WP MM 18:00:00 NR 16.30 127.90 462 462 __________P___ -1 16.30 127.90 4 9 50
1918 WP MM 21:00:00 NR 16.60 128.27 516 516 __________P___ -1 16.60 128.27 4 9 50
1918 WP MM 22:00:00 NR 16.70 128.40 531 531 __________O___ -1 16.70 128.40 4 10 48
1918 WP MM 1918-04-15 00:00:00 NR 16.92 128.64 561 570 __________P___ -1 16.92 128.64 4 10 47
1918 WP MM 03:00:00 NR 17.25 129.02 615 622 __________P___ -1 17.25 129.02 4 10 47
1918 WP MM 06:00:00 NR 17.58 129.39 676 676 __________P___ -1 17.58 129.39 4 10 48
1918 WP MM 09:00:00 NR 17.90 129.77 730 730 __________P___ -1 17.90 129.77 4 10 49
1918 WP MM 10:00:00 NR 18.00 129.90 745 745 __________O___ -1 18.00 129.90 4 9 50
1918 WP MM 12:00:00 NR 18.18 130.13 776 784 __________P___ -1 18.18 130.13 4 9 51
1918 WP MM 15:00:00 NR 18.45 130.48 823 830 __________P___ -1 18.45 130.48 4 9 52
1918 WP MM 18:00:00 NR 18.71 130.85 868 877 __________P___ -1 18.71 130.85 4 9 53
1918 WP MM 21:00:00 NR 19.00 131.25 931 931 __________P___ -1 19.00 131.25 4 10 53
1918 WP MM 22:00:00 NR 19.10 131.40 946 946 __________O___ -1 19.10 131.40 4 11 53
1918 WP MM 1918-04-16 00:00:00 NR 19.33 131.72 984 984 __________P___ -1 19.33 131.72 4 12 53
1918 WP MM 03:00:00 NR 19.70 132.25 1050 1060 __________P___ -1 19.70 132.25 4 13 54
1918 WP MM 06:00:00 NR 20.09 132.81 1118 1118 __________P___ -1 20.09 132.81 4 13 54
1918 WP MM 09:00:00 NR 20.47 133.40 1187 1187 __________P___ -1 20.47 133.40 4 14 55
1918 WP MM 10:00:00 NR 20.60 133.60 1197 1183 __________O___ -1 20.60 133.60 4 11 57
1918 WP MM 12:00:00 NR 20.78 133.92 1183 1165 __________P___ -1 20.78 133.92 4 10 59
1918 WP MM 15:00:00 NR 21.05 134.40 1165 1150 __________P___ -1 21.05 134.40 4 11 59
1918 WP MM 18:00:00 NR 21.37 134.96 1154 1136 __________P___ -1 21.37 134.96 4 14 58
1918 WP MM 21:00:00 NR 21.81 135.70 1141 1129 __________P___ -1 21.81 135.70 4 17 57
1918 WP MM 22:00:00 NR 22.00 136.00 1134 1119 __________O___ -1 22.00 136.00 4 23 56
1918 WP MM 1918-04-17 00:00:00 NR 22.47 136.75 1119 1114 __________P___ -1 22.47 136.75 4 28 56
1918 WP MM 03:00:00 NR 23.29 138.06 1119 1088 __________P___ -1 23.29 138.06 4 31 56
1918 WP MM 06:00:00 NR 24.20 139.50 1088 1049 __________P___ -1 24.20 139.50 4 32 55
1918 WP MM 09:00:00 NR 25.11 140.94 1049 1038 __________P___ -1 25.11 140.94 4 32 55
1918 WP MM 10:00:00 NR 25.40 141.40 1043 1016 __________O___ -1 25.40 141.40 4 29 55
1918 WP MM 12:00:00 NR 25.96 142.26 1016 970 __________P___ -1 25.96 142.26 4 27 54
1918 WP MM 15:00:00 NR 26.74 143.44 973 933 __________P___ -1 26.74 143.44 4 25 53
1918 WP MM 18:00:00 NR 27.47 144.53 933 919 __________P___ -1 27.47 144.53 4 24 53
1918 WP MM 21:00:00 NR 28.17 145.56 921 913 __________P___ -1 28.17 145.56 4 23 52
1918 WP MM 22:00:00 NR 28.40 145.90 918 __________O___ -1 28.40 145.90 4 23 53